sensor_id;sensor_type;location;lat;lon;timestamp;pressure;altitude;pressure_sealevel;temperature;humidity
26775;BME280;14362;51.902;7.626;2023-02-15T00:01:39;102323.34;;;2.16;100.00
26775;BME280;14362;51.902;7.626;2023-02-15T00:05:41;102321.66;;;2.15;100.00
26775;BME280;14362;51.902;7.626;2023-02-15T00:09:44;102313.25;;;2.10;100.00
26775;BME280;14362;51.902;7.626;2023-02-15T00:13:46;102321.97;;;2.07;100.00
26775;BME280;14362;51.902;7.626;2023-02-15T00:17:47;102327.31;;;2.02;100.00
26775;BME280;14362;51.902;7.626;2023-02-15T00:21:49;102320.13;;;2.01;100.00
26775;BME280;14362;51.902;7.626;2023-02-15T00:25:52;102323.41;;;1.92;100.00
26775;BME280;14362;51.902;7.626;2023-02-15T00:29:53;102314.78;;;1.89;100.00
26775;BME280;14362;51.902;7.626;2023-02-15T00:33:55;102317.78;;;1.87;100.00
26775;BME280;14362;51.902;7.626;2023-02-15T00:37:56;102314.88;;;1.82;100.00
26775;BME280;14362;51.902;7.626;2023-02-15T00:41:59;102302.41;;;1.80;100.00
26775;BME280;14362;51.902;7.626;2023-02-15T00:46:01;102304.16;;;1.74;100.00
26775;BME280;14362;51.902;7.626;2023-02-15T00:50:04;102298.91;;;1.73;100.00
26775;BME280;14362;51.902;7.626;2023-02-15T00:54:06;102298.53;;;1.69;100.00
26775;BME280;14362;51.902;7.626;2023-02-15T00:58:09;102297.94;;;1.67;100.00
26775;BME280;14362;51.902;7.626;2023-02-15T01:02:11;102294.47;;;1.72;100.00
26775;BME280;14362;51.902;7.626;2023-02-15T01:06:13;102294.09;;;1.68;100.00
26775;BME280;14362;51.902;7.626;2023-02-15T01:10:15;102279.13;;;1.64;100.00
26775;BME280;14362;51.902;7.626;2023-02-15T01:14:18;102283.16;;;1.62;100.00
26775;BME280;14362;51.902;7.626;2023-02-15T01:18:20;102285.88;;;1.68;100.00
26775;BME280;14362;51.902;7.626;2023-02-15T01:22:21;102278.91;;;1.66;100.00
26775;BME280;14362;51.902;7.626;2023-02-15T01:26:23;102274.72;;;1.63;100.00
26775;BME280;14362;51.902;7.626;2023-02-15T01:30:26;102277.38;;;1.52;100.00
26775;BME280;14362;51.902;7.626;2023-02-15T01:34:28;102275.53;;;1.46;100.00
26775;BME280;14362;51.902;7.626;2023-02-15T01:38:30;102269.41;;;1.44;100.00
26775;BME280;14362;51.902;7.626;2023-02-15T01:42:31;102269.13;;;1.34;100.00
26775;BME280;14362;51.902;7.626;2023-02-15T01:46:37;102250.72;;;1.34;100.00
26775;BME280;14362;51.902;7.626;2023-02-15T01:50:41;102248.44;;;1.31;100.00
26775;BME280;14362;51.902;7.626;2023-02-15T01:54:46;102246.34;;;1.27;100.00
26775;BME280;14362;51.902;7.626;2023-02-15T01:58:49;102241.31;;;1.24;100.00
26775;BME280;14362;51.902;7.626;2023-02-15T02:02:55;102244.31;;;1.22;100.00
26775;BME280;14362;51.902;7.626;2023-02-15T02:06:58;102239.88;;;1.21;100.00
26775;BME280;14362;51.902;7.626;2023-02-15T02:11:00;102241.19;;;1.19;100.00
26775;BME280;14362;51.902;7.626;2023-02-15T02:15:02;102236.97;;;1.16;100.00
26775;BME280;14362;51.902;7.626;2023-02-15T02:19:23;102226.66;;;1.12;100.00
26775;BME280;14362;51.902;7.626;2023-02-15T02:23:38;102222.94;;;1.06;100.00
26775;BME280;14362;51.902;7.626;2023-02-15T02:27:47;102223.75;;;1.07;100.00
26775;BME280;14362;51.902;7.626;2023-02-15T02:32:09;102219.56;;;1.04;100.00
26775;BME280;14362;51.902;7.626;2023-02-15T02:36:21;102222.13;;;0.99;100.00
26775;BME280;14362;51.902;7.626;2023-02-15T02:40:32;102220.47;;;0.98;100.00
26775;BME280;14362;51.902;7.626;2023-02-15T02:44:42;102207.25;;;0.89;100.00
26775;BME280;14362;51.902;7.626;2023-02-15T02:48:44;102212.28;;;0.92;100.00
26775;BME280;14362;51.902;7.626;2023-02-15T02:52:49;102207.25;;;0.89;100.00
26775;BME280;14362;51.902;7.626;2023-02-15T02:56:52;102206.50;;;0.82;100.00
26775;BME280;14362;51.902;7.626;2023-02-15T03:00:57;102205.47;;;0.77;100.00
26775;BME280;14362;51.902;7.626;2023-02-15T03:05:08;102205.00;;;0.80;100.00
26775;BME280;14362;51.902;7.626;2023-02-15T03:09:18;102189.22;;;0.75;100.00
26775;BME280;14362;51.902;7.626;2023-02-15T03:13:22;102183.50;;;0.77;100.00
26775;BME280;14362;51.902;7.626;2023-02-15T03:17:26;102181.69;;;0.71;100.00
26775;BME280;14362;51.902;7.626;2023-02-15T03:21:33;102187.38;;;0.69;100.00
26775;BME280;14362;51.902;7.626;2023-02-15T03:25:40;102196.03;;;0.73;100.00
26775;BME280;14362;51.902;7.626;2023-02-15T03:29:44;102198.34;;;0.69;100.00
26775;BME280;14362;51.902;7.626;2023-02-15T03:33:52;102199.22;;;0.70;100.00
26775;BME280;14362;51.902;7.626;2023-02-15T03:37:58;102191.03;;;0.63;100.00
26775;BME280;14362;51.902;7.626;2023-02-15T03:42:07;102190.19;;;0.63;100.00
26775;BME280;14362;51.902;7.626;2023-02-15T03:46:14;102185.31;;;0.65;100.00
26775;BME280;14362;51.902;7.626;2023-02-15T03:50:19;102176.91;;;0.60;100.00
26775;BME280;14362;51.902;7.626;2023-02-15T03:54:40;102182.06;;;0.50;100.00
26775;BME280;14362;51.902;7.626;2023-02-15T03:58:47;102179.97;;;0.52;100.00
26775;BME280;14362;51.902;7.626;2023-02-15T04:03:16;102180.56;;;0.54;100.00
26775;BME280;14362;51.902;7.626;2023-02-15T04:07:20;102180.41;;;0.49;100.00
26775;BME280;14362;51.902;7.626;2023-02-15T04:11:21;102183.75;;;0.51;100.00
26775;BME280;14362;51.902;7.626;2023-02-15T04:15:23;102184.44;;;0.46;100.00
26775;BME280;14362;51.902;7.626;2023-02-15T04:19:42;102183.19;;;0.42;100.00
26775;BME280;14362;51.902;7.626;2023-02-15T04:24:01;102176.66;;;0.43;100.00
26775;BME280;14362;51.902;7.626;2023-02-15T04:28:20;102173.97;;;0.37;100.00
26775;BME280;14362;51.902;7.626;2023-02-15T04:32:23;102168.31;;;0.32;100.00
26775;BME280;14362;51.902;7.626;2023-02-15T04:36:24;102165.56;;;0.32;100.00
26775;BME280;14362;51.902;7.626;2023-02-15T04:40:25;102166.44;;;0.26;100.00
26775;BME280;14362;51.902;7.626;2023-02-15T04:44:27;102161.59;;;0.28;100.00
26775;BME280;14362;51.902;7.626;2023-02-15T04:48:30;102164.50;;;0.33;100.00
26775;BME280;14362;51.902;7.626;2023-02-15T04:52:31;102163.88;;;0.31;100.00
26775;BME280;14362;51.902;7.626;2023-02-15T04:56:33;102152.72;;;0.26;100.00
26775;BME280;14362;51.902;7.626;2023-02-15T05:00:35;102156.34;;;0.20;100.00
26775;BME280;14362;51.902;7.626;2023-02-15T05:04:38;102151.34;;;0.17;100.00
26775;BME280;14362;51.902;7.626;2023-02-15T05:08:39;102155.16;;;0.16;100.00
26775;BME280;14362;51.902;7.626;2023-02-15T05:12:40;102147.97;;;0.15;100.00
26775;BME280;14362;51.902;7.626;2023-02-15T05:16:42;102143.75;;;0.12;100.00
26775;BME280;14362;51.902;7.626;2023-02-15T05:20:45;102153.28;;;0.10;100.00
26775;BME280;14362;51.902;7.626;2023-02-15T05:24:46;102147.75;;;0.16;100.00
26775;BME280;14362;51.902;7.626;2023-02-15T05:29:06;102145.28;;;0.08;100.00
26775;BME280;14362;51.902;7.626;2023-02-15T05:33:07;102146.34;;;0.07;100.00
26775;BME280;14362;51.902;7.626;2023-02-15T05:37:10;102145.13;;;0.03;100.00
26775;BME280;14362;51.902;7.626;2023-02-15T05:41:12;102146.78;;;0.04;100.00
26775;BME280;14362;51.902;7.626;2023-02-15T05:45:13;102137.09;;;0.02;100.00
26775;BME280;14362;51.902;7.626;2023-02-15T05:49:15;102128.03;;;0.01;100.00
26775;BME280;14362;51.902;7.626;2023-02-15T05:53:18;102125.53;;;0.00;100.00
26775;BME280;14362;51.902;7.626;2023-02-15T05:57:19;102113.97;;;-0.02;100.00
26775;BME280;14362;51.902;7.626;2023-02-15T06:01:21;102123.84;;;-0.01;100.00
26775;BME280;14362;51.902;7.626;2023-02-15T06:05:23;102128.31;;;-0.06;100.00
26775;BME280;14362;51.902;7.626;2023-02-15T06:09:25;102122.63;;;-0.05;100.00
26775;BME280;14362;51.902;7.626;2023-02-15T06:13:27;102128.91;;;-0.04;100.00
26775;BME280;14362;51.902;7.626;2023-02-15T06:17:29;102127.25;;;-0.05;100.00
26775;BME280;14362;51.902;7.626;2023-02-15T06:21:30;102122.81;;;-0.06;100.00
26775;BME280;14362;51.902;7.626;2023-02-15T06:25:33;102125.78;;;-0.08;100.00
26775;BME280;14362;51.902;7.626;2023-02-15T06:29:34;102133.22;;;-0.15;100.00
26775;BME280;14362;51.902;7.626;2023-02-15T06:33:36;102122.66;;;-0.11;100.00
26775;BME280;14362;51.902;7.626;2023-02-15T06:37:38;102127.88;;;-0.03;100.00
26775;BME280;14362;51.902;7.626;2023-02-15T06:41:41;102130.22;;;-0.07;100.00
26775;BME280;14362;51.902;7.626;2023-02-15T06:45:42;102125.13;;;-0.03;100.00
26775;BME280;14362;51.902;7.626;2023-02-15T06:49:44;102125.97;;;-0.03;100.00
26775;BME280;14362;51.902;7.626;2023-02-15T06:53:45;102128.72;;;-0.03;100.00
26775;BME280;14362;51.902;7.626;2023-02-15T06:57:48;102134.63;;;-0.06;100.00
26775;BME280;14362;51.902;7.626;2023-02-15T07:01:49;102139.69;;;-0.03;100.00
26775;BME280;14362;51.902;7.626;2023-02-15T07:05:54;102142.47;;;-0.09;100.00
26775;BME280;14362;51.902;7.626;2023-02-15T07:09:55;102139.06;;;-0.05;100.00
26775;BME280;14362;51.902;7.626;2023-02-15T07:13:58;102138.16;;;0.01;100.00
26775;BME280;14362;51.902;7.626;2023-02-15T07:17:59;102135.59;;;0.06;100.00
26775;BME280;14362;51.902;7.626;2023-02-15T07:22:01;102129.34;;;-0.01;100.00
26775;BME280;14362;51.902;7.626;2023-02-15T07:26:05;102116.19;;;0.07;100.00
26775;BME280;14362;51.902;7.626;2023-02-15T07:30:10;102116.16;;;0.14;100.00
26775;BME280;14362;51.902;7.626;2023-02-15T07:34:12;102127.06;;;0.20;100.00
26775;BME280;14362;51.902;7.626;2023-02-15T07:38:13;102120.06;;;0.24;100.00
26775;BME280;14362;51.902;7.626;2023-02-15T07:42:14;102111.78;;;0.31;100.00
26775;BME280;14362;51.902;7.626;2023-02-15T07:46:17;102109.66;;;0.33;100.00
26775;BME280;14362;51.902;7.626;2023-02-15T07:50:20;102106.22;;;0.37;100.00
26775;BME280;14362;51.902;7.626;2023-02-15T07:54:22;102103.44;;;0.44;100.00
26775;BME280;14362;51.902;7.626;2023-02-15T07:58:23;102094.91;;;0.52;100.00
26775;BME280;14362;51.902;7.626;2023-02-15T08:02:49;102089.75;;;0.62;100.00
26775;BME280;14362;51.902;7.626;2023-02-15T08:07:10;102082.47;;;0.74;100.00
26775;BME280;14362;51.902;7.626;2023-02-15T08:11:18;102074.50;;;0.84;100.00
26775;BME280;14362;51.902;7.626;2023-02-15T08:15:33;102082.84;;;0.95;100.00
26775;BME280;14362;51.902;7.626;2023-02-15T08:19:36;102088.56;;;1.11;100.00
26775;BME280;14362;51.902;7.626;2023-02-15T08:23:37;102082.28;;;1.22;100.00
26775;BME280;14362;51.902;7.626;2023-02-15T08:27:39;102080.41;;;1.34;100.00
26775;BME280;14362;51.902;7.626;2023-02-15T08:31:40;102073.19;;;1.51;100.00
26775;BME280;14362;51.902;7.626;2023-02-15T08:35:43;102073.84;;;1.65;100.00
26775;BME280;14362;51.902;7.626;2023-02-15T08:39:45;102060.28;;;1.81;100.00
26775;BME280;14362;51.902;7.626;2023-02-15T08:43:48;102057.94;;;1.96;100.00
26775;BME280;14362;51.902;7.626;2023-02-15T08:47:51;102062.13;;;2.10;100.00
26775;BME280;14362;51.902;7.626;2023-02-15T08:51:53;102057.84;;;2.25;100.00
26775;BME280;14362;51.902;7.626;2023-02-15T08:55:55;102050.34;;;2.44;100.00
26775;BME280;14362;51.902;7.626;2023-02-15T08:59:57;102049.22;;;2.56;100.00
26775;BME280;14362;51.902;7.626;2023-02-15T09:04:00;102048.53;;;2.72;100.00
26775;BME280;14362;51.902;7.626;2023-02-15T09:08:03;102046.59;;;2.84;100.00
26775;BME280;14362;51.902;7.626;2023-02-15T09:12:05;102033.25;;;3.04;100.00
26775;BME280;14362;51.902;7.626;2023-02-15T09:16:08;102027.06;;;3.25;100.00
26775;BME280;14362;51.902;7.626;2023-02-15T09:20:10;102030.56;;;3.48;100.00
26775;BME280;14362;51.902;7.626;2023-02-15T09:24:14;102041.56;;;3.76;100.00
26775;BME280;14362;51.902;7.626;2023-02-15T09:28:16;102024.88;;;3.99;100.00
26775;BME280;14362;51.902;7.626;2023-02-15T09:32:17;102023.88;;;4.21;100.00
26775;BME280;14362;51.902;7.626;2023-02-15T09:36:20;102019.50;;;4.42;100.00
26775;BME280;14362;51.902;7.626;2023-02-15T09:40:23;102013.69;;;4.60;100.00
26775;BME280;14362;51.902;7.626;2023-02-15T09:44:36;102011.72;;;4.77;100.00
26775;BME280;14362;51.902;7.626;2023-02-15T09:48:40;102005.97;;;5.00;100.00
26775;BME280;14362;51.902;7.626;2023-02-15T09:52:52;102009.47;;;5.16;100.00
26775;BME280;14362;51.902;7.626;2023-02-15T09:57:00;102009.41;;;5.33;100.00
26775;BME280;14362;51.902;7.626;2023-02-15T10:01:12;102017.59;;;5.49;100.00
26775;BME280;14362;51.902;7.626;2023-02-15T10:05:25;102021.09;;;5.66;100.00
26775;BME280;14362;51.902;7.626;2023-02-15T10:09:44;102023.41;;;5.74;100.00
26775;BME280;14362;51.902;7.626;2023-02-15T10:13:57;102022.25;;;5.97;100.00
26775;BME280;14362;51.902;7.626;2023-02-15T10:18:16;102013.25;;;6.11;100.00
26775;BME280;14362;51.902;7.626;2023-02-15T10:22:29;102016.16;;;6.26;100.00
26775;BME280;14362;51.902;7.626;2023-02-15T10:26:36;102008.81;;;6.41;100.00
26775;BME280;14362;51.902;7.626;2023-02-15T10:30:47;102008.94;;;6.61;100.00
26775;BME280;14362;51.902;7.626;2023-02-15T10:34:51;102013.69;;;6.71;100.00
26775;BME280;14362;51.902;7.626;2023-02-15T10:38:58;102006.56;;;6.85;100.00
26775;BME280;14362;51.902;7.626;2023-02-15T10:43:14;102011.66;;;6.98;100.00
26775;BME280;14362;51.902;7.626;2023-02-15T10:47:39;102013.63;;;7.12;100.00
26775;BME280;14362;51.902;7.626;2023-02-15T10:51:52;102006.25;;;7.32;100.00
26775;BME280;14362;51.902;7.626;2023-02-15T10:56:07;102004.31;;;7.48;100.00
26775;BME280;14362;51.902;7.626;2023-02-15T11:00:16;101994.66;;;7.65;100.00
26775;BME280;14362;51.902;7.626;2023-02-15T11:04:39;101982.47;;;7.81;100.00
26775;BME280;14362;51.902;7.626;2023-02-15T11:08:45;101983.31;;;7.92;100.00
26775;BME280;14362;51.902;7.626;2023-02-15T11:12:47;101979.16;;;8.04;100.00
26775;BME280;14362;51.902;7.626;2023-02-15T11:16:52;101981.41;;;8.27;100.00
26775;BME280;14362;51.902;7.626;2023-02-15T11:21:00;101988.06;;;8.41;100.00
26775;BME280;14362;51.902;7.626;2023-02-15T11:25:14;101981.91;;;8.54;100.00
26775;BME280;14362;51.902;7.626;2023-02-15T11:29:18;101974.13;;;8.66;100.00
26775;BME280;14362;51.902;7.626;2023-02-15T11:33:25;101973.78;;;8.82;100.00
26775;BME280;14362;51.902;7.626;2023-02-15T11:37:35;101969.31;;;8.96;100.00
26775;BME280;14362;51.902;7.626;2023-02-15T11:41:41;101958.91;;;9.16;99.81
26775;BME280;14362;51.902;7.626;2023-02-15T11:45:46;101961.34;;;9.28;100.00
26775;BME280;14362;51.902;7.626;2023-02-15T11:49:47;101955.94;;;9.46;99.89
26775;BME280;14362;51.902;7.626;2023-02-15T11:53:50;101958.94;;;9.60;99.19
26775;BME280;14362;51.902;7.626;2023-02-15T11:57:55;101951.59;;;9.74;99.35
26775;BME280;14362;51.902;7.626;2023-02-15T12:02:00;101951.22;;;9.85;99.30
26775;BME280;14362;51.902;7.626;2023-02-15T12:06:04;101938.03;;;10.01;98.16
26775;BME280;14362;51.902;7.626;2023-02-15T12:10:17;101921.84;;;10.08;96.48
26775;BME280;14362;51.902;7.626;2023-02-15T12:14:18;101917.25;;;10.21;97.37
26775;BME280;14362;51.902;7.626;2023-02-15T12:18:33;101919.63;;;10.33;95.22
26775;BME280;14362;51.902;7.626;2023-02-15T12:22:37;101912.47;;;10.50;92.69
26775;BME280;14362;51.902;7.626;2023-02-15T12:26:40;101915.44;;;10.59;93.82
26775;BME280;14362;51.902;7.626;2023-02-15T12:30:42;101911.06;;;10.76;91.55
26775;BME280;14362;51.902;7.626;2023-02-15T12:34:44;101902.84;;;10.85;92.45
26775;BME280;14362;51.902;7.626;2023-02-15T12:39:03;101890.91;;;11.03;92.35
26775;BME280;14362;51.902;7.626;2023-02-15T12:43:24;101891.22;;;11.19;90.58
26775;BME280;14362;51.902;7.626;2023-02-15T12:47:27;101883.53;;;11.30;88.59
26775;BME280;14362;51.902;7.626;2023-02-15T12:51:29;101890.47;;;11.51;87.79
26775;BME280;14362;51.902;7.626;2023-02-15T12:55:32;101888.53;;;11.70;84.62
26775;BME280;14362;51.902;7.626;2023-02-15T12:59:35;101881.25;;;11.87;81.03
26775;BME280;14362;51.902;7.626;2023-02-15T13:03:48;101875.69;;;12.01;81.15
26775;BME280;14362;51.902;7.626;2023-02-15T13:07:55;101866.00;;;12.12;80.94
26775;BME280;14362;51.902;7.626;2023-02-15T13:12:09;101860.31;;;12.17;81.70
26775;BME280;14362;51.902;7.626;2023-02-15T13:16:13;101859.59;;;12.24;79.39
26775;BME280;14362;51.902;7.626;2023-02-15T13:20:17;101845.00;;;12.27;77.41
26775;BME280;14362;51.902;7.626;2023-02-15T13:24:22;101847.91;;;12.36;77.71
26775;BME280;14362;51.902;7.626;2023-02-15T13:28:27;101847.59;;;12.51;76.91
26775;BME280;14362;51.902;7.626;2023-02-15T13:32:35;101846.56;;;12.60;76.29
26775;BME280;14362;51.902;7.626;2023-02-15T13:46:42;101830.59;;;13.01;74.05
26775;BME280;14362;51.902;7.626;2023-02-15T13:51:06;101828.13;;;13.00;70.87
26775;BME280;14362;51.902;7.626;2023-02-15T13:55:23;101823.53;;;13.04;71.78
26775;BME280;14362;51.902;7.626;2023-02-15T13:59:39;101826.75;;;13.11;70.95
26775;BME280;14362;51.902;7.626;2023-02-15T14:04:09;101824.88;;;13.20;70.08
26775;BME280;14362;51.902;7.626;2023-02-15T14:08:21;101811.88;;;13.24;69.66
26775;BME280;14362;51.902;7.626;2023-02-15T14:12:37;101814.56;;;13.28;68.23
26775;BME280;14362;51.902;7.626;2023-02-15T14:16:50;101815.19;;;13.26;67.12
26775;BME280;14362;51.902;7.626;2023-02-15T14:21:04;101813.81;;;13.36;67.67
26775;BME280;14362;51.902;7.626;2023-02-15T14:25:17;101792.34;;;13.32;67.08
26775;BME280;14362;51.902;7.626;2023-02-15T14:29:28;101789.94;;;13.39;67.82
26775;BME280;14362;51.902;7.626;2023-02-15T14:33:38;101791.59;;;13.40;66.33
26775;BME280;14362;51.902;7.626;2023-02-15T14:37:44;101779.06;;;13.37;67.43
26775;BME280;14362;51.902;7.626;2023-02-15T14:41:52;101782.16;;;13.36;65.82
26775;BME280;14362;51.902;7.626;2023-02-15T14:45:58;101777.66;;;13.48;65.56
26775;BME280;14362;51.902;7.626;2023-02-15T14:50:36;101771.25;;;13.48;64.12
26775;BME280;14362;51.902;7.626;2023-02-15T14:54:59;101769.53;;;13.38;61.79
26775;BME280;14362;51.902;7.626;2023-02-15T14:59:16;101767.94;;;13.46;62.38
26775;BME280;14362;51.902;7.626;2023-02-15T15:03:21;101766.97;;;13.50;62.88
26775;BME280;14362;51.902;7.626;2023-02-15T15:07:25;101778.91;;;13.42;62.43
26775;BME280;14362;51.902;7.626;2023-02-15T15:11:43;101778.84;;;13.34;61.73
26775;BME280;14362;51.902;7.626;2023-02-15T15:15:47;101774.97;;;13.22;62.56
26775;BME280;14362;51.902;7.626;2023-02-15T15:19:58;101770.88;;;13.06;63.56
26775;BME280;14362;51.902;7.626;2023-02-15T15:24:00;101777.13;;;12.89;65.30
26775;BME280;14362;51.902;7.626;2023-02-15T15:28:01;101766.47;;;12.78;66.26
26775;BME280;14362;51.902;7.626;2023-02-15T15:32:07;101762.03;;;12.63;67.74
26775;BME280;14362;51.902;7.626;2023-02-15T15:36:32;101759.88;;;12.47;69.24
26775;BME280;14362;51.902;7.626;2023-02-15T15:40:46;101762.69;;;12.33;69.06
26775;BME280;14362;51.902;7.626;2023-02-15T15:45:06;101751.19;;;12.22;68.92
26775;BME280;14362;51.902;7.626;2023-02-15T15:49:19;101748.38;;;12.08;69.72
26775;BME280;14362;51.902;7.626;2023-02-15T15:53:23;101748.09;;;11.96;70.53
26775;BME280;14362;51.902;7.626;2023-02-15T15:57:28;101749.72;;;11.84;71.34
26775;BME280;14362;51.902;7.626;2023-02-15T16:01:35;101744.09;;;11.70;73.05
26775;BME280;14362;51.902;7.626;2023-02-15T16:05:40;101744.69;;;11.54;74.37
26775;BME280;14362;51.902;7.626;2023-02-15T16:09:53;101747.94;;;11.42;75.64
26775;BME280;14362;51.902;7.626;2023-02-15T16:13:55;101753.19;;;11.30;76.54
26775;BME280;14362;51.902;7.626;2023-02-15T16:17:58;101755.38;;;11.15;77.85
26775;BME280;14362;51.902;7.626;2023-02-15T16:22:02;101744.16;;;11.02;79.89
26775;BME280;14362;51.902;7.626;2023-02-15T16:26:08;101751.91;;;10.86;82.04
26775;BME280;14362;51.902;7.626;2023-02-15T16:30:34;101751.09;;;10.67;84.10
26775;BME280;14362;51.902;7.626;2023-02-15T16:34:35;101752.75;;;10.50;85.93
26775;BME280;14362;51.902;7.626;2023-02-15T16:39:11;101758.06;;;10.28;86.97
26775;BME280;14362;51.902;7.626;2023-02-15T16:43:22;101756.59;;;10.12;88.29
26775;BME280;14362;51.902;7.626;2023-02-15T16:47:26;101749.19;;;9.98;89.53
26775;BME280;14362;51.902;7.626;2023-02-15T16:51:31;101760.81;;;9.81;90.54
26775;BME280;14362;51.902;7.626;2023-02-15T16:55:37;101749.81;;;9.66;92.07
26775;BME280;14362;51.902;7.626;2023-02-15T16:59:44;101755.53;;;9.51;93.10
26775;BME280;14362;51.902;7.626;2023-02-15T17:03:48;101768.72;;;9.41;94.48
26775;BME280;14362;51.902;7.626;2023-02-15T17:08:02;101757.13;;;9.29;95.79
26775;BME280;14362;51.902;7.626;2023-02-15T17:12:08;101768.91;;;9.16;96.69
26775;BME280;14362;51.902;7.626;2023-02-15T17:16:26;101764.84;;;9.04;96.81
26775;BME280;14362;51.902;7.626;2023-02-15T17:20:28;101757.69;;;8.93;97.95
26775;BME280;14362;51.902;7.626;2023-02-15T17:24:36;101760.00;;;8.81;99.37
26775;BME280;14362;51.902;7.626;2023-02-15T17:28:45;101769.81;;;8.68;100.00
26775;BME280;14362;51.902;7.626;2023-02-15T17:32:52;101764.59;;;8.57;100.00
26775;BME280;14362;51.902;7.626;2023-02-15T17:36:58;101761.59;;;8.48;100.00
26775;BME280;14362;51.902;7.626;2023-02-15T17:40:59;101757.47;;;8.41;100.00
26775;BME280;14362;51.902;7.626;2023-02-15T17:45:03;101751.91;;;8.36;100.00
26775;BME280;14362;51.902;7.626;2023-02-15T17:49:04;101749.16;;;8.31;100.00
26775;BME280;14362;51.902;7.626;2023-02-15T17:53:08;101754.78;;;8.21;100.00
26775;BME280;14362;51.902;7.626;2023-02-15T17:57:12;101757.28;;;8.12;100.00
26775;BME280;14362;51.902;7.626;2023-02-15T18:01:17;101764.81;;;8.07;100.00
26775;BME280;14362;51.902;7.626;2023-02-15T18:05:37;101768.72;;;7.96;100.00
26775;BME280;14362;51.902;7.626;2023-02-15T18:09:56;101769.31;;;7.88;100.00
26775;BME280;14362;51.902;7.626;2023-02-15T18:14:15;101762.38;;;7.81;100.00
26775;BME280;14362;51.902;7.626;2023-02-15T18:18:19;101762.94;;;7.73;100.00
26775;BME280;14362;51.902;7.626;2023-02-15T18:22:21;101775.72;;;7.69;100.00
26775;BME280;14362;51.902;7.626;2023-02-15T18:26:24;101771.88;;;7.60;100.00
26775;BME280;14362;51.902;7.626;2023-02-15T18:30:26;101773.25;;;7.52;100.00
26775;BME280;14362;51.902;7.626;2023-02-15T18:34:31;101771.31;;;7.48;100.00
26775;BME280;14362;51.902;7.626;2023-02-15T18:38:33;101776.03;;;7.42;100.00
26775;BME280;14362;51.902;7.626;2023-02-15T18:42:35;101772.16;;;7.38;100.00
26775;BME280;14362;51.902;7.626;2023-02-15T18:46:37;101776.03;;;7.27;100.00
26775;BME280;14362;51.902;7.626;2023-02-15T18:50:40;101773.25;;;7.22;100.00
26775;BME280;14362;51.902;7.626;2023-02-15T18:54:42;101779.38;;;7.14;100.00
26775;BME280;14362;51.902;7.626;2023-02-15T18:58:44;101787.41;;;7.06;100.00
26775;BME280;14362;51.902;7.626;2023-02-15T19:02:47;101791.00;;;7.02;100.00
26775;BME280;14362;51.902;7.626;2023-02-15T19:06:50;101793.22;;;6.95;100.00
26775;BME280;14362;51.902;7.626;2023-02-15T19:10:51;101794.59;;;6.87;100.00
26775;BME280;14362;51.902;7.626;2023-02-15T19:14:53;101795.66;;;6.76;100.00
26775;BME280;14362;51.902;7.626;2023-02-15T19:18:56;101797.31;;;6.72;100.00
26775;BME280;14362;51.902;7.626;2023-02-15T19:23:00;101794.53;;;6.62;100.00
26775;BME280;14362;51.902;7.626;2023-02-15T19:27:02;101792.59;;;6.58;100.00
26775;BME280;14362;51.902;7.626;2023-02-15T19:31:04;101794.50;;;6.47;100.00
26775;BME280;14362;51.902;7.626;2023-02-15T19:35:07;101796.38;;;6.42;100.00
26775;BME280;14362;51.902;7.626;2023-02-15T19:39:29;101794.72;;;6.36;100.00
26775;BME280;14362;51.902;7.626;2023-02-15T19:43:33;101794.69;;;6.31;100.00
26775;BME280;14362;51.902;7.626;2023-02-15T19:47:35;101783.59;;;6.26;100.00
26775;BME280;14362;51.902;7.626;2023-02-15T19:51:37;101793.81;;;6.20;100.00
26775;BME280;14362;51.902;7.626;2023-02-15T19:55:40;101788.00;;;6.17;100.00
26775;BME280;14362;51.902;7.626;2023-02-15T19:59:42;101806.25;;;6.13;100.00
26775;BME280;14362;51.902;7.626;2023-02-15T20:03:43;101798.75;;;6.08;100.00
26775;BME280;14362;51.902;7.626;2023-02-15T20:07:48;101792.09;;;6.05;100.00
26775;BME280;14362;51.902;7.626;2023-02-15T20:11:51;101803.13;;;6.00;100.00
26775;BME280;14362;51.902;7.626;2023-02-15T20:15:52;101805.59;;;5.96;100.00
26775;BME280;14362;51.902;7.626;2023-02-15T20:19:54;101807.50;;;5.91;100.00
26775;BME280;14362;51.902;7.626;2023-02-15T20:23:56;101812.72;;;5.87;100.00
26775;BME280;14362;51.902;7.626;2023-02-15T20:27:59;101799.44;;;5.84;100.00
26775;BME280;14362;51.902;7.626;2023-02-15T20:32:01;101795.00;;;5.83;100.00
26775;BME280;14362;51.902;7.626;2023-02-15T20:36:03;101801.38;;;5.84;100.00
26775;BME280;14362;51.902;7.626;2023-02-15T20:40:08;101806.09;;;5.83;100.00
26775;BME280;14362;51.902;7.626;2023-02-15T20:44:19;101813.81;;;5.81;100.00
26775;BME280;14362;51.902;7.626;2023-02-15T20:48:21;101813.25;;;5.79;100.00
26775;BME280;14362;51.902;7.626;2023-02-15T20:52:22;101809.63;;;5.79;100.00
26775;BME280;14362;51.902;7.626;2023-02-15T20:56:23;101814.91;;;5.80;100.00
26775;BME280;14362;51.902;7.626;2023-02-15T21:00:29;101809.63;;;5.79;100.00
26775;BME280;14362;51.902;7.626;2023-02-15T21:04:32;101820.69;;;5.79;100.00
26775;BME280;14362;51.902;7.626;2023-02-15T21:08:34;101823.78;;;5.82;100.00
26775;BME280;14362;51.902;7.626;2023-02-15T21:12:35;101823.22;;;5.85;100.00
26775;BME280;14362;51.902;7.626;2023-02-15T21:16:38;101821.59;;;5.89;100.00
26775;BME280;14362;51.902;7.626;2023-02-15T21:20:43;101825.50;;;5.93;100.00
26775;BME280;14362;51.902;7.626;2023-02-15T21:24:48;101815.28;;;5.94;100.00
26775;BME280;14362;51.902;7.626;2023-02-15T21:28:50;101821.63;;;5.94;100.00
26775;BME280;14362;51.902;7.626;2023-02-15T21:32:53;101826.34;;;5.99;100.00
26775;BME280;14362;51.902;7.626;2023-02-15T21:36:54;101823.34;;;6.05;100.00